This is the latest recevied weather packets stored in our database for station/object K0RGI. If no packets are shown the sender has not sent any weather packets the latest 1 day(s).
| Time | Temp. | Humidity | Pressure | Rain* | Wind** | Luminosity | Snow |
|---|---|---|---|---|---|---|---|
| 1777995112 | 22.78° C | 56% | 1016.8 hPa | 0 mm | 0.89 m/s, 234° | 216 W/m² | - |
| 1777994510 | 21.67° C | 55% | 1016.8 hPa | 0 mm | 3.58 m/s, 265° | 521 W/m² | - |
| 1777993909 | 21.11° C | 57% | 1017 hPa | 0 mm | 0.89 m/s, 256° | 310 W/m² | - |
| 1777993308 | 21.11° C | 55% | 1016.8 hPa | 0 mm | 2.68 m/s, 284° | 374 W/m² | - |
| 1777992708 | 21.11° C | 56% | 1017 hPa | 0 mm | 1.79 m/s, 249° | 401 W/m² | - |
| 1777992108 | 21.11° C | 57% | 1016.9 hPa | 0 mm | 0.89 m/s, 278° | 358 W/m² | - |
| 1777991508 | 20.56° C | 55% | 1016.8 hPa | 0 mm | 2.68 m/s, 266° | 381 W/m² | - |
| 1777990908 | 20° C | 57% | 1016.8 hPa | 0 mm | 0.89 m/s, 208° | 429 W/m² | - |
| 1777990308 | 20° C | 58% | 1016.9 hPa | 0 mm | 1.79 m/s, 260° | 246 W/m² | - |
| 1777989708 | 20.56° C | 57% | 1017.1 hPa | 0 mm | 1.34 m/s, 126° | 290 W/m² | - |
| 1777989106 | 20° C | 59% | 1017.3 hPa | 0 mm | 0.89 m/s, 215° | 396 W/m² | - |
| 1777988506 | 20° C | 59% | 1017.3 hPa | 0 mm | 0.45 m/s, 230° | 465 W/m² | - |
| 1777987904 | 19.44° C | 62% | 1017.3 hPa | 0 mm | 2.24 m/s, 272° | 388 W/m² | - |
| 1777987304 | 18.89° C | 62% | 1017 hPa | 0 mm | 0 m/s | 289 W/m² | - |
| 1777986699 | 20° C | 60% | 1017 hPa | 0 mm | 0.45 m/s, 228° | 255 W/m² | - |
| 1777986095 | 18.89° C | 65% | 1016.9 hPa | 0 mm | 0 m/s | 265 W/m² | - |
| 1777985494 | 17.78° C | 66% | 1016.6 hPa | 0 mm | 0 m/s | 262 W/m² | - |
| 1777984893 | 17.22° C | 68% | 1016.7 hPa | 0 mm | 0 m/s | 195 W/m² | - |
| 1777984292 | 16.67° C | 71% | 1016.7 hPa | 0 mm | 0.89 m/s, 197° | 201 W/m² | - |
| 1777983692 | 15° C | 78% | 1016.7 hPa | 0 mm | 0.45 m/s, 316° | 173 W/m² | - |
| 1777983091 | 14.44° C | 81% | 1016.5 hPa | 0 mm | 0 m/s | 128 W/m² | - |
| 1777982489 | 13.89° C | 82% | 1016.6 hPa | 0 mm | 0.45 m/s, 315° | 69 W/m² | - |
| 1777981887 | 13.33° C | 80% | 1016.2 hPa | 0 mm | 0 m/s | 67 W/m² | - |
| 1777981286 | 13.33° C | 78% | 1016.4 hPa | 0 mm | 0 m/s | 49 W/m² | - |
| 1777980685 | 13.33° C | 76% | 1016 hPa | 0 mm | 0.45 m/s, 310° | 39 W/m² | - |
* Rain latest hour (hover to see other rain measurements)
** Current wind speed in m/s (hover to see current wind gust speed)